메인 페이지
METAR-TAF:

METAR-TAF

공항 :

첸나이 국제공항

첸나이, 인도

위도: 13-00N, 경도: 080-11E, 고도: 10m

현재 날씨관측

예보는 15분 전, 23:30시(UTC)에 발표되었습니다.
5kt
온도 30°C
습도 79%
기압 1004 hPa
시정: 6000m
고도 2000ft 상공 구름 조금

METAR: VOMM 262330Z 18005KT 6000 FEW020 30/26 Q1004 NOSIG

시각: 05:15 (23:45 UTC)

예보

예보는 45분 전, 23:00시(UTC)에 발표되었습니다.
예보 대상 시간: 27일 00시부터 28일 06시까지 (UTC)
여러 방향의 바람 2kt
시정: 6000m
고도 2000ft 상공 구름 조금
고도 10000ft 상공 구름 보통
전환 중
27일 03시부터 27일 04시까지 (UTC)
10kt
전환 중
27일 18시부터 27일 19시까지 (UTC)
여러 방향의 바람 2kt
전환 중
28일 03시부터 28일 04시까지 (UTC)
10kt

TAF: VOMM 262300Z 2700/2806 VRB02KT 6000 FEW020 SCT100 BECMG 2703/2704 10010KT BECMG 2718/2719 18010KT BCEMG 2800/2801 VRB02KT BECMG 2803/2804 10010KT

4,000개 이상의 공항 관측 자료 및 예보 (METAR 및 TAF 보고).

지도상에서 검색 가능한 기상관측소가 노란 점과 빨간 점으로 표시되어 있습니다.

기상관측소 명을 보려면 표시 위로 마우스를 이동하세요.

날씨 관측과 예보를 보려면 클릭하세요.

지도 변경 : 확대하려면 엑스 표시가 있는 녹색 버튼, 축소하려면 빼기 표시가 있는 녹색 버튼, 다음 페이지의 지도를 보려면 녹색 화살표를 클릭하세요.


METAR-TAF: